sensor_id;sensor_type;location;lat;lon;timestamp;pressure;altitude;pressure_sealevel;temperature;humidity
80678;BME280;70042;52.494;5.502;2023-10-09T00:00:53;102130.38;;;20.34;69.48
80678;BME280;70042;52.494;5.502;2023-10-09T00:03:26;102124.19;;;20.35;69.60
80678;BME280;70042;52.494;5.502;2023-10-09T00:05:53;102123.25;;;20.36;69.53
80678;BME280;70042;52.494;5.502;2023-10-09T00:08:19;102116.25;;;20.32;69.51
80678;BME280;70042;52.494;5.502;2023-10-09T00:11:11;102110.03;;;20.33;69.37
80678;BME280;70042;52.494;5.502;2023-10-09T00:13:44;102116.28;;;20.31;69.60
80678;BME280;70042;52.494;5.502;2023-10-09T00:16:26;102107.41;;;20.32;69.40
80678;BME280;70042;52.494;5.502;2023-10-09T00:19:12;102105.66;;;20.31;69.28
80678;BME280;70042;52.494;5.502;2023-10-09T00:21:46;102097.72;;;20.29;69.41
80678;BME280;70042;52.494;5.502;2023-10-09T00:24:13;102099.47;;;20.30;69.44
80678;BME280;70042;52.494;5.502;2023-10-09T00:26:44;102092.44;;;20.29;69.32
80678;BME280;70042;52.494;5.502;2023-10-09T00:29:12;102086.19;;;20.30;69.35
80678;BME280;70042;52.494;5.502;2023-10-09T00:31:50;102094.22;;;20.27;69.54
80678;BME280;70042;52.494;5.502;2023-10-09T00:34:17;102092.47;;;20.26;69.55
80678;BME280;70042;52.494;5.502;2023-10-09T00:36:46;102097.75;;;20.24;69.46
80678;BME280;70042;52.494;5.502;2023-10-09T00:39:21;102084.50;;;20.24;69.44
80678;BME280;70042;52.494;5.502;2023-10-09T00:42:02;102086.25;;;20.24;69.58
80678;BME280;70042;52.494;5.502;2023-10-09T00:44:29;102085.38;;;20.25;69.64
80678;BME280;70042;52.494;5.502;2023-10-09T00:47:09;102079.22;;;20.26;69.59
80678;BME280;70042;52.494;5.502;2023-10-09T00:49:59;102068.53;;;20.28;69.47
80678;BME280;70042;52.494;5.502;2023-10-09T00:52:30;102063.25;;;20.28;69.48
80678;BME280;70042;52.494;5.502;2023-10-09T00:55:00;102055.28;;;20.29;69.64
80678;BME280;70042;52.494;5.502;2023-10-09T00:57:50;102065.88;;;20.29;69.56
80678;BME280;70042;52.494;5.502;2023-10-09T01:00:26;102060.56;;;20.29;69.67
80678;BME280;70042;52.494;5.502;2023-10-09T01:03:02;102066.75;;;20.30;69.57
80678;BME280;70042;52.494;5.502;2023-10-09T01:05:43;102061.47;;;20.28;69.48
80678;BME280;70042;52.494;5.502;2023-10-09T01:08:20;102054.38;;;20.29;69.31
80678;BME280;70042;52.494;5.502;2023-10-09T01:11:05;102063.28;;;20.26;69.30
80678;BME280;70042;52.494;5.502;2023-10-09T01:13:44;102057.06;;;20.27;69.36
80678;BME280;70042;52.494;5.502;2023-10-09T01:16:17;102051.75;;;20.27;69.66
80678;BME280;70042;52.494;5.502;2023-10-09T01:18:49;102048.22;;;20.25;69.24
80678;BME280;70042;52.494;5.502;2023-10-09T01:21:15;102044.72;;;20.26;69.33
80678;BME280;70042;52.494;5.502;2023-10-09T01:23:42;102038.50;;;20.24;69.41
80678;BME280;70042;52.494;5.502;2023-10-09T01:26:38;102045.56;;;20.23;69.13
80678;BME280;70042;52.494;5.502;2023-10-09T01:29:12;102025.22;;;20.24;69.08
80678;BME280;70042;52.494;5.502;2023-10-09T01:31:43;102033.19;;;20.26;69.12
80678;BME280;70042;52.494;5.502;2023-10-09T01:36:50;102021.69;;;20.25;69.22
80678;BME280;70042;52.494;5.502;2023-10-09T01:39:19;102018.19;;;20.23;69.17
80678;BME280;70042;52.494;5.502;2023-10-09T01:41:56;102017.31;;;20.21;69.28
80678;BME280;70042;52.494;5.502;2023-10-09T01:44:28;102010.31;;;20.17;69.35
80678;BME280;70042;52.494;5.502;2023-10-09T01:47:04;101991.78;;;20.14;69.49
80678;BME280;70042;52.494;5.502;2023-10-09T01:49:35;102002.38;;;20.14;69.42
80678;BME280;70042;52.494;5.502;2023-10-09T01:52:07;101995.41;;;20.10;69.56
80678;BME280;70042;52.494;5.502;2023-10-09T01:54:43;101997.13;;;20.11;69.46
80678;BME280;70042;52.494;5.502;2023-10-09T01:57:16;101994.47;;;20.11;69.48
80678;BME280;70042;52.494;5.502;2023-10-09T01:59:50;101991.78;;;20.14;69.23
80678;BME280;70042;52.494;5.502;2023-10-09T02:02:19;101996.19;;;20.16;69.40
80678;BME280;70042;52.494;5.502;2023-10-09T02:05:05;101997.91;;;20.19;69.17
80678;BME280;70042;52.494;5.502;2023-10-09T02:07:40;101999.63;;;20.21;69.08
80678;BME280;70042;52.494;5.502;2023-10-09T02:10:09;101992.50;;;20.23;69.03
80678;BME280;70042;52.494;5.502;2023-10-09T02:12:48;101989.09;;;20.17;69.16
80678;BME280;70042;52.494;5.502;2023-10-09T02:15:30;101982.13;;;20.10;69.33
80678;BME280;70042;52.494;5.502;2023-10-09T02:18:11;101983.91;;;20.08;69.31
80678;BME280;70042;52.494;5.502;2023-10-09T02:20:46;101983.13;;;20.04;69.41
80678;BME280;70042;52.494;5.502;2023-10-09T02:23:13;101967.22;;;20.03;69.71
80678;BME280;70042;52.494;5.502;2023-10-09T02:25:42;101957.50;;;20.02;69.78
80678;BME280;70042;52.494;5.502;2023-10-09T02:28:10;101979.66;;;20.01;69.76
80678;BME280;70042;52.494;5.502;2023-10-09T02:30:45;101975.22;;;20.00;69.58
80678;BME280;70042;52.494;5.502;2023-10-09T02:33:17;101972.59;;;19.98;69.90
80678;BME280;70042;52.494;5.502;2023-10-09T02:35:56;101979.66;;;20.01;69.64
80678;BME280;70042;52.494;5.502;2023-10-09T02:38:25;101978.75;;;20.00;69.54
80678;BME280;70042;52.494;5.502;2023-10-09T02:40:51;101981.41;;;20.00;69.79
80678;BME280;70042;52.494;5.502;2023-10-09T02:43:30;101976.13;;;20.00;69.83
80678;BME280;70042;52.494;5.502;2023-10-09T02:46:11;101964.56;;;20.03;69.66
80678;BME280;70042;52.494;5.502;2023-10-09T02:48:43;101962.75;;;20.05;69.18
80678;BME280;70042;52.494;5.502;2023-10-09T02:51:11;101953.97;;;20.01;69.40
80678;BME280;70042;52.494;5.502;2023-10-09T02:53:43;101949.59;;;19.99;69.70
80678;BME280;70042;52.494;5.502;2023-10-09T02:56:08;101945.22;;;19.98;69.57
80678;BME280;70042;52.494;5.502;2023-10-09T02:58:41;101948.72;;;19.98;69.89
80678;BME280;70042;52.494;5.502;2023-10-09T03:01:12;101935.50;;;19.97;69.76
80678;BME280;70042;52.494;5.502;2023-10-09T03:03:42;101935.50;;;19.97;69.70
80678;BME280;70042;52.494;5.502;2023-10-09T03:06:14;101937.25;;;19.96;69.60
80678;BME280;70042;52.494;5.502;2023-10-09T03:08:50;101952.28;;;19.97;69.77
80678;BME280;70042;52.494;5.502;2023-10-09T03:11:16;101948.75;;;19.97;69.75
80678;BME280;70042;52.494;5.502;2023-10-09T03:13:42;101938.97;;;19.99;69.68
80678;BME280;70042;52.494;5.502;2023-10-09T03:16:13;101941.63;;;19.99;69.56
80678;BME280;70042;52.494;5.502;2023-10-09T03:18:53;101944.22;;;20.02;69.51
80678;BME280;70042;52.494;5.502;2023-10-09T03:21:19;101940.69;;;20.01;69.45
80678;BME280;70042;52.494;5.502;2023-10-09T03:23:46;101938.97;;;19.99;69.55
80678;BME280;70042;52.494;5.502;2023-10-09T03:26:16;101943.44;;;19.97;69.74
80678;BME280;70042;52.494;5.502;2023-10-09T03:28:49;101947.91;;;19.95;69.86
80678;BME280;70042;52.494;5.502;2023-10-09T03:31:14;101958.53;;;19.95;69.60
80678;BME280;70042;52.494;5.502;2023-10-09T03:33:40;101959.41;;;19.94;69.62
80678;BME280;70042;52.494;5.502;2023-10-09T03:36:07;101962.97;;;19.94;69.68
80678;BME280;70042;52.494;5.502;2023-10-09T03:38:38;101957.66;;;19.94;69.85
80678;BME280;70042;52.494;5.502;2023-10-09T03:41:05;101959.38;;;19.95;69.77
80678;BME280;70042;52.494;5.502;2023-10-09T03:43:34;101955.00;;;19.94;69.89
80678;BME280;70042;52.494;5.502;2023-10-09T03:46:09;101959.41;;;19.94;69.71
80678;BME280;70042;52.494;5.502;2023-10-09T03:48:47;101950.56;;;19.95;69.70
80678;BME280;70042;52.494;5.502;2023-10-09T03:51:13;101957.66;;;19.94;69.70
80678;BME280;70042;52.494;5.502;2023-10-09T03:53:41;101962.97;;;19.93;69.60
80678;BME280;70042;52.494;5.502;2023-10-09T03:56:07;101967.38;;;19.94;69.43
80678;BME280;70042;52.494;5.502;2023-10-09T03:58:40;101963.88;;;19.92;69.66
80678;BME280;70042;52.494;5.502;2023-10-09T04:01:13;101969.19;;;19.92;69.71
80678;BME280;70042;52.494;5.502;2023-10-09T04:04:03;101959.47;;;19.91;69.67
80678;BME280;70042;52.494;5.502;2023-10-09T04:06:31;101961.25;;;19.90;69.96
80678;BME280;70042;52.494;5.502;2023-10-09T04:09:05;101952.41;;;19.90;69.59
80678;BME280;70042;52.494;5.502;2023-10-09T04:11:50;101937.38;;;19.90;70.09
80678;BME280;70042;52.494;5.502;2023-10-09T04:14:42;101943.56;;;19.91;69.64
80678;BME280;70042;52.494;5.502;2023-10-09T04:17:20;101934.72;;;19.92;69.75
80678;BME280;70042;52.494;5.502;2023-10-09T04:19:55;101940.00;;;19.92;69.80
80678;BME280;70042;52.494;5.502;2023-10-09T04:22:40;101928.47;;;19.93;69.82
80678;BME280;70042;52.494;5.502;2023-10-09T04:25:24;101926.75;;;19.92;69.74
80678;BME280;70042;52.494;5.502;2023-10-09T04:28:00;101936.47;;;19.91;69.81
80678;BME280;70042;52.494;5.502;2023-10-09T04:30:38;101945.31;;;19.92;69.48
80678;BME280;70042;52.494;5.502;2023-10-09T04:33:12;101961.25;;;19.90;69.77
80678;BME280;70042;52.494;5.502;2023-10-09T04:35:55;101969.19;;;19.92;69.75
80678;BME280;70042;52.494;5.502;2023-10-09T04:38:47;101948.88;;;19.89;69.76
80678;BME280;70042;52.494;5.502;2023-10-09T04:41:27;101948.00;;;19.89;69.81
80678;BME280;70042;52.494;5.502;2023-10-09T04:43:56;101958.59;;;19.89;69.92
80678;BME280;70042;52.494;5.502;2023-10-09T04:46:40;101952.41;;;19.90;69.75
80678;BME280;70042;52.494;5.502;2023-10-09T04:49:32;101957.72;;;19.90;69.93
80678;BME280;70042;52.494;5.502;2023-10-09T04:52:17;101951.50;;;19.91;69.77
80678;BME280;70042;52.494;5.502;2023-10-09T04:54:58;101965.66;;;19.90;69.81
80678;BME280;70042;52.494;5.502;2023-10-09T04:57:53;101965.66;;;19.91;69.94
80678;BME280;70042;52.494;5.502;2023-10-09T05:00:39;101967.44;;;19.91;69.61
80678;BME280;70042;52.494;5.502;2023-10-09T05:03:07;101982.47;;;19.90;69.67
80678;BME280;70042;52.494;5.502;2023-10-09T05:05:36;101981.59;;;19.90;69.80
80678;BME280;70042;52.494;5.502;2023-10-09T05:08:04;101992.19;;;19.90;69.66
80678;BME280;70042;52.494;5.502;2023-10-09T05:10:50;102003.69;;;19.89;69.95
80678;BME280;70042;52.494;5.502;2023-10-09T05:13:26;101998.38;;;19.89;69.92
80678;BME280;70042;52.494;5.502;2023-10-09T05:16:14;102009.91;;;19.88;69.73
80678;BME280;70042;52.494;5.502;2023-10-09T05:18:44;102005.50;;;19.88;69.77
80678;BME280;70042;52.494;5.502;2023-10-09T05:21:13;102015.19;;;19.89;69.60
80678;BME280;70042;52.494;5.502;2023-10-09T05:23:42;102010.75;;;19.90;69.62
80678;BME280;70042;52.494;5.502;2023-10-09T05:26:14;102016.06;;;19.90;69.97
80678;BME280;70042;52.494;5.502;2023-10-09T05:29:00;102013.41;;;19.90;69.54
80678;BME280;70042;52.494;5.502;2023-10-09T05:31:50;102013.41;;;19.90;69.92
80678;BME280;70042;52.494;5.502;2023-10-09T05:34:35;102010.75;;;19.90;69.64
80678;BME280;70042;52.494;5.502;2023-10-09T05:37:20;102001.03;;;19.89;69.56
80678;BME280;70042;52.494;5.502;2023-10-09T05:40:02;102009.00;;;19.90;69.87
80678;BME280;70042;52.494;5.502;2023-10-09T05:42:29;102007.25;;;19.88;69.97
80678;BME280;70042;52.494;5.502;2023-10-09T05:45:11;101997.53;;;19.87;69.74
80678;BME280;70042;52.494;5.502;2023-10-09T05:47:50;101972.78;;;19.86;69.88
80678;BME280;70042;52.494;5.502;2023-10-09T05:50:25;101973.69;;;19.87;70.04
80678;BME280;70042;52.494;5.502;2023-10-09T05:52:53;101990.47;;;19.86;69.87
80678;BME280;70042;52.494;5.502;2023-10-09T05:55:20;101986.94;;;19.87;69.90
80678;BME280;70042;52.494;5.502;2023-10-09T05:58:05;101995.78;;;19.86;69.90
80678;BME280;70042;52.494;5.502;2023-10-09T06:00:50;102001.97;;;19.88;69.84
80678;BME280;70042;52.494;5.502;2023-10-09T06:03:51;102010.81;;;19.88;69.86
80678;BME280;70042;52.494;5.502;2023-10-09T06:06:23;102015.22;;;19.88;69.96
80678;BME280;70042;52.494;5.502;2023-10-09T06:09:08;102002.81;;;19.90;69.94
80678;BME280;70042;52.494;5.502;2023-10-09T06:11:45;101998.38;;;19.90;69.87
80678;BME280;70042;52.494;5.502;2023-10-09T06:14:18;102001.88;;;19.92;69.87
80678;BME280;70042;52.494;5.502;2023-10-09T06:16:57;102002.75;;;19.93;69.99
80678;BME280;70042;52.494;5.502;2023-10-09T06:19:26;101986.84;;;19.93;69.99
80678;BME280;70042;52.494;5.502;2023-10-09T06:21:59;101977.16;;;19.92;69.73
80678;BME280;70042;52.494;5.502;2023-10-09T06:24:43;101972.69;;;19.92;69.88
80678;BME280;70042;52.494;5.502;2023-10-09T06:27:21;101982.47;;;19.92;69.93
80678;BME280;70042;52.494;5.502;2023-10-09T06:29:57;101987.75;;;19.92;69.83
80678;BME280;70042;52.494;5.502;2023-10-09T06:32:41;101996.56;;;19.92;69.74
80678;BME280;70042;52.494;5.502;2023-10-09T06:35:23;101990.41;;;19.92;69.94
80678;BME280;70042;52.494;5.502;2023-10-09T06:37:56;101985.97;;;19.92;70.00
80678;BME280;70042;52.494;5.502;2023-10-09T06:43:07;101991.25;;;19.92;69.83
80678;BME280;70042;52.494;5.502;2023-10-09T06:45:54;101992.13;;;19.93;70.18
80678;BME280;70042;52.494;5.502;2023-10-09T06:48:23;102001.88;;;19.94;70.03
80678;BME280;70042;52.494;5.502;2023-10-09T06:51:08;101994.78;;;19.94;69.97
80678;BME280;70042;52.494;5.502;2023-10-09T06:53:53;101999.22;;;19.94;69.95
80678;BME280;70042;52.494;5.502;2023-10-09T06:56:28;101993.00;;;19.95;69.88
80678;BME280;70042;52.494;5.502;2023-10-09T06:58:54;101995.66;;;19.95;69.85
80678;BME280;70042;52.494;5.502;2023-10-09T07:01:24;101997.44;;;19.93;69.68
80678;BME280;70042;52.494;5.502;2023-10-09T07:03:56;101987.75;;;19.92;69.94
80678;BME280;70042;52.494;5.502;2023-10-09T07:06:40;101993.06;;;19.90;69.92
80678;BME280;70042;52.494;5.502;2023-10-09T07:09:05;101991.31;;;19.91;70.14
80678;BME280;70042;52.494;5.502;2023-10-09T07:11:38;101998.38;;;19.92;70.01
80678;BME280;70042;52.494;5.502;2023-10-09T07:14:07;101995.72;;;19.92;70.20
80678;BME280;70042;52.494;5.502;2023-10-09T07:16:35;102000.09;;;19.93;69.93
80678;BME280;70042;52.494;5.502;2023-10-09T07:19:07;101989.47;;;19.94;70.02
80678;BME280;70042;52.494;5.502;2023-10-09T07:21:50;101989.47;;;19.94;70.01
80678;BME280;70042;52.494;5.502;2023-10-09T07:24:20;101989.47;;;19.94;69.97
80678;BME280;70042;52.494;5.502;2023-10-09T07:26:59;102000.06;;;19.96;70.01
80678;BME280;70042;52.494;5.502;2023-10-09T07:29:31;102004.47;;;19.97;70.00
80678;BME280;70042;52.494;5.502;2023-10-09T07:32:16;101995.63;;;19.96;69.95
80678;BME280;70042;52.494;5.502;2023-10-09T07:34:50;101992.09;;;19.96;69.91
80678;BME280;70042;52.494;5.502;2023-10-09T07:37:27;101974.44;;;19.95;69.57
80678;BME280;70042;52.494;5.502;2023-10-09T07:40:03;101962.97;;;19.94;69.91
80678;BME280;70042;52.494;5.502;2023-10-09T07:42:33;101957.66;;;19.93;70.05
80678;BME280;70042;52.494;5.502;2023-10-09T07:45:19;101981.53;;;19.93;69.91
80678;BME280;70042;52.494;5.502;2023-10-09T07:47:49;102001.88;;;19.92;69.91
80678;BME280;70042;52.494;5.502;2023-10-09T07:50:28;102004.50;;;19.94;69.78
80678;BME280;70042;52.494;5.502;2023-10-09T07:53:07;101978.88;;;19.94;70.22
80678;BME280;70042;52.494;5.502;2023-10-09T07:55:52;101956.72;;;19.95;70.02
80678;BME280;70042;52.494;5.502;2023-10-09T07:58:28;101976.19;;;19.96;69.87
80678;BME280;70042;52.494;5.502;2023-10-09T08:00:58;101965.56;;;19.96;69.93
80678;BME280;70042;52.494;5.502;2023-10-09T08:03:24;101972.63;;;19.97;69.78
80678;BME280;70042;52.494;5.502;2023-10-09T08:05:52;101985.00;;;19.98;69.87
80678;BME280;70042;52.494;5.502;2023-10-09T08:08:32;101985.84;;;19.98;69.84
80678;BME280;70042;52.494;5.502;2023-10-09T08:10:58;101989.38;;;19.99;69.77
80678;BME280;70042;52.494;5.502;2023-10-09T08:13:42;102004.41;;;20.00;69.80
80678;BME280;70042;52.494;5.502;2023-10-09T08:16:25;102013.25;;;19.99;69.84
80678;BME280;70042;52.494;5.502;2023-10-09T08:19:03;102027.44;;;19.98;69.83
80678;BME280;70042;52.494;5.502;2023-10-09T08:21:48;102046.03;;;19.98;69.78
80678;BME280;70042;52.494;5.502;2023-10-09T08:24:32;102054.81;;;19.98;69.82
80678;BME280;70042;52.494;5.502;2023-10-09T08:27:06;102054.81;;;19.98;69.74
80678;BME280;70042;52.494;5.502;2023-10-09T08:29:51;102064.56;;;19.99;69.94
80678;BME280;70042;52.494;5.502;2023-10-09T08:32:36;102064.53;;;20.01;69.77
80678;BME280;70042;52.494;5.502;2023-10-09T08:35:06;102072.50;;;20.01;69.60
80678;BME280;70042;52.494;5.502;2023-10-09T08:37:52;102083.94;;;20.03;69.76
80678;BME280;70042;52.494;5.502;2023-10-09T08:40:19;102102.50;;;20.04;69.57
80678;BME280;70042;52.494;5.502;2023-10-09T08:42:52;102096.31;;;20.04;69.63
80678;BME280;70042;52.494;5.502;2023-10-09T08:45:22;102084.78;;;20.05;69.60
80678;BME280;70042;52.494;5.502;2023-10-09T08:47:56;102094.53;;;20.06;69.76
80678;BME280;70042;52.494;5.502;2023-10-09T08:50:21;102103.38;;;20.05;69.69
80678;BME280;70042;52.494;5.502;2023-10-09T08:52:50;102102.47;;;20.06;69.63
80678;BME280;70042;52.494;5.502;2023-10-09T08:55:16;102113.97;;;20.05;69.69
80678;BME280;70042;52.494;5.502;2023-10-09T08:57:51;102119.31;;;20.03;69.48
80678;BME280;70042;52.494;5.502;2023-10-09T09:00:18;102121.09;;;20.04;69.62
80678;BME280;70042;52.494;5.502;2023-10-09T09:02:50;102119.28;;;20.05;69.82
80678;BME280;70042;52.494;5.502;2023-10-09T09:05:19;102121.94;;;20.05;69.76
80678;BME280;70042;52.494;5.502;2023-10-09T09:07:46;102113.97;;;20.05;69.86
80678;BME280;70042;52.494;5.502;2023-10-09T09:10:13;102108.66;;;20.05;69.72
80678;BME280;70042;52.494;5.502;2023-10-09T09:12:56;102111.31;;;20.05;69.87
80678;BME280;70042;52.494;5.502;2023-10-09T09:15:29;102108.66;;;20.05;69.80
80678;BME280;70042;52.494;5.502;2023-10-09T09:18:05;102124.59;;;20.05;69.82
80678;BME280;70042;52.494;5.502;2023-10-09T09:20:43;102115.75;;;20.06;69.73
80678;BME280;70042;52.494;5.502;2023-10-09T09:23:12;102115.75;;;20.06;69.68
80678;BME280;70042;52.494;5.502;2023-10-09T09:28:51;102106.91;;;20.07;69.58
80678;BME280;70042;52.494;5.502;2023-10-09T09:31:20;102099.81;;;20.06;69.65
80678;BME280;70042;52.494;5.502;2023-10-09T09:33:56;102099.81;;;20.06;69.41
80678;BME280;70042;52.494;5.502;2023-10-09T09:36:23;102094.56;;;20.04;69.80
80678;BME280;70042;52.494;5.502;2023-10-09T09:38:54;102099.81;;;20.06;69.52
80678;BME280;70042;52.494;5.502;2023-10-09T09:41:26;102098.06;;;20.05;69.76
80678;BME280;70042;52.494;5.502;2023-10-09T09:43:59;102102.50;;;20.04;69.64
80678;BME280;70042;52.494;5.502;2023-10-09T09:46:32;102110.44;;;20.06;69.58
80678;BME280;70042;52.494;5.502;2023-10-09T09:49:05;102115.75;;;20.06;69.84
80678;BME280;70042;52.494;5.502;2023-10-09T09:51:31;102111.31;;;20.05;69.68
80678;BME280;70042;52.494;5.502;2023-10-09T09:53:57;102107.81;;;20.04;69.36
80678;BME280;70042;52.494;5.502;2023-10-09T09:56:26;102099.88;;;20.04;69.67
80678;BME280;70042;52.494;5.502;2023-10-09T09:58:57;102107.78;;;20.06;69.74
80678;BME280;70042;52.494;5.502;2023-10-09T10:01:29;102105.13;;;20.06;69.71
80678;BME280;70042;52.494;5.502;2023-10-09T10:04:08;102099.81;;;20.06;69.53
80678;BME280;70042;52.494;5.502;2023-10-09T10:06:40;102106.91;;;20.07;69.63
80678;BME280;70042;52.494;5.502;2023-10-09T10:09:08;102115.69;;;20.09;69.64
80678;BME280;70042;52.494;5.502;2023-10-09T10:11:46;102117.47;;;20.10;69.59
80678;BME280;70042;52.494;5.502;2023-10-09T10:14:17;102113.88;;;20.11;69.47
80678;BME280;70042;52.494;5.502;2023-10-09T10:17:07;102120.97;;;20.12;69.48
80678;BME280;70042;52.494;5.502;2023-10-09T10:22:28;102131.56;;;20.13;69.54
80678;BME280;70042;52.494;5.502;2023-10-09T10:24:56;102126.22;;;20.15;69.25
80678;BME280;70042;52.494;5.502;2023-10-09T10:27:25;102125.34;;;20.14;69.40
80678;BME280;70042;52.494;5.502;2023-10-09T10:35:37;102113.84;;;20.14;69.46
80678;BME280;70042;52.494;5.502;2023-10-09T10:41:16;102116.50;;;20.14;69.39
80678;BME280;70042;52.494;5.502;2023-10-09T10:43:43;102116.50;;;20.14;69.63
80678;BME280;70042;52.494;5.502;2023-10-09T10:46:19;102114.72;;;20.14;69.35
80678;BME280;70042;52.494;5.502;2023-10-09T10:48:54;102124.44;;;20.17;69.78
80678;BME280;70042;52.494;5.502;2023-10-09T10:51:26;102119.13;;;20.17;69.37
80678;BME280;70042;52.494;5.502;2023-10-09T10:54:03;102111.13;;;20.18;69.48
80678;BME280;70042;52.494;5.502;2023-10-09T10:56:47;102132.34;;;20.20;69.33
80678;BME280;70042;52.494;5.502;2023-10-09T10:59:14;102135.91;;;20.19;69.19
80678;BME280;70042;52.494;5.502;2023-10-09T11:01:39;102143.84;;;20.19;69.52
80678;BME280;70042;52.494;5.502;2023-10-09T11:04:25;102143.84;;;20.19;69.26
80678;BME280;70042;52.494;5.502;2023-10-09T11:07:01;102143.84;;;20.19;69.38
80678;BME280;70042;52.494;5.502;2023-10-09T11:09:56;102140.31;;;20.20;69.43
80678;BME280;70042;52.494;5.502;2023-10-09T11:15:12;102145.63;;;20.20;69.27
80678;BME280;70042;52.494;5.502;2023-10-09T11:18:00;102142.03;;;20.21;69.42
80678;BME280;70042;52.494;5.502;2023-10-09T11:20:31;102150.94;;;20.20;69.57
80678;BME280;70042;52.494;5.502;2023-10-09T11:22:59;102149.13;;;20.20;69.29
80678;BME280;70042;52.494;5.502;2023-10-09T11:25:45;102143.84;;;20.19;69.34
80678;BME280;70042;52.494;5.502;2023-10-09T11:28:21;102149.16;;;20.19;69.47
80678;BME280;70042;52.494;5.502;2023-10-09T11:31:11;102150.06;;;20.18;69.34
80678;BME280;70042;52.494;5.502;2023-10-09T11:33:49;102142.09;;;20.18;69.45
80678;BME280;70042;52.494;5.502;2023-10-09T11:36:26;102154.47;;;20.19;69.53
80678;BME280;70042;52.494;5.502;2023-10-09T11:39:02;102159.78;;;20.19;69.40
80678;BME280;70042;52.494;5.502;2023-10-09T11:42:04;102149.16;;;20.19;69.49
80678;BME280;70042;52.494;5.502;2023-10-09T11:44:40;102150.06;;;20.18;69.53
80678;BME280;70042;52.494;5.502;2023-10-09T11:47:07;102146.50;;;20.19;69.46
80678;BME280;70042;52.494;5.502;2023-10-09T11:49:55;102143.84;;;20.19;69.81
80678;BME280;70042;52.494;5.502;2023-10-09T11:52:23;102138.53;;;20.19;69.80
80678;BME280;70042;52.494;5.502;2023-10-09T11:55:02;102132.34;;;20.18;69.69
80678;BME280;70042;52.494;5.502;2023-10-09T11:57:28;102133.25;;;20.19;69.77
80678;BME280;70042;52.494;5.502;2023-10-09T11:59:59;102135.00;;;20.18;69.94
80678;BME280;70042;52.494;5.502;2023-10-09T12:02:36;102128.81;;;20.18;69.71
80678;BME280;70042;52.494;5.502;2023-10-09T12:05:10;102129.69;;;20.20;69.85
80678;BME280;70042;52.494;5.502;2023-10-09T12:07:43;102135.00;;;20.20;69.80
80678;BME280;70042;52.494;5.502;2023-10-09T12:10:09;102135.00;;;20.20;69.62
80678;BME280;70042;52.494;5.502;2023-10-09T12:12:35;102130.53;;;20.20;69.65
80678;BME280;70042;52.494;5.502;2023-10-09T12:15:01;102141.16;;;20.22;69.44
80678;BME280;70042;52.494;5.502;2023-10-09T12:17:30;102138.50;;;20.20;69.57
80678;BME280;70042;52.494;5.502;2023-10-09T12:19:55;102134.13;;;20.19;69.63
80678;BME280;70042;52.494;5.502;2023-10-09T12:22:21;102127.03;;;20.20;69.25
80678;BME280;70042;52.494;5.502;2023-10-09T12:24:47;102127.94;;;20.19;69.40
80678;BME280;70042;52.494;5.502;2023-10-09T12:27:13;102137.66;;;20.20;69.54
80678;BME280;70042;52.494;5.502;2023-10-09T12:29:38;102143.84;;;20.19;69.36
80678;BME280;70042;52.494;5.502;2023-10-09T12:32:11;102141.19;;;20.19;69.57
80678;BME280;70042;52.494;5.502;2023-10-09T12:34:37;102138.53;;;20.19;69.73
80678;BME280;70042;52.494;5.502;2023-10-09T12:37:04;102135.91;;;20.19;69.70
80678;BME280;70042;52.494;5.502;2023-10-09T12:39:29;102135.00;;;20.20;69.73
80678;BME280;70042;52.494;5.502;2023-10-09T12:42:01;102141.16;;;20.22;69.83
80678;BME280;70042;52.494;5.502;2023-10-09T12:44:33;102138.50;;;20.22;69.62
80678;BME280;70042;52.494;5.502;2023-10-09T12:47:07;102139.38;;;20.22;69.57
80678;BME280;70042;52.494;5.502;2023-10-09T12:49:33;102142.00;;;20.24;69.56
80678;BME280;70042;52.494;5.502;2023-10-09T12:51:58;102135.81;;;20.23;69.42
80678;BME280;70042;52.494;5.502;2023-10-09T12:54:27;102139.34;;;20.24;69.69
80678;BME280;70042;52.494;5.502;2023-10-09T12:56:54;102132.31;;;20.23;69.14
80678;BME280;70042;52.494;5.502;2023-10-09T12:59:20;102133.19;;;20.22;69.52
80678;BME280;70042;52.494;5.502;2023-10-09T13:01:47;102134.97;;;20.23;69.52
80678;BME280;70042;52.494;5.502;2023-10-09T13:04:18;102129.66;;;20.23;69.48
80678;BME280;70042;52.494;5.502;2023-10-09T13:06:47;102134.97;;;20.23;69.52
80678;BME280;70042;52.494;5.502;2023-10-09T13:09:16;102128.75;;;20.22;69.43
80678;BME280;70042;52.494;5.502;2023-10-09T13:11:50;102122.56;;;20.22;69.36
80678;BME280;70042;52.494;5.502;2023-10-09T13:14:16;102124.34;;;20.23;69.45
80678;BME280;70042;52.494;5.502;2023-10-09T13:16:48;102126.06;;;20.24;69.58
80678;BME280;70042;52.494;5.502;2023-10-09T13:19:18;102116.34;;;20.24;69.52
80678;BME280;70042;52.494;5.502;2023-10-09T13:21:43;102117.22;;;20.25;69.49
80678;BME280;70042;52.494;5.502;2023-10-09T13:24:10;102119.03;;;20.26;69.26
80678;BME280;70042;52.494;5.502;2023-10-09T13:26:39;102107.50;;;20.26;69.43
80678;BME280;70042;52.494;5.502;2023-10-09T13:29:06;102116.38;;;20.26;69.45
80678;BME280;70042;52.494;5.502;2023-10-09T13:31:35;102118.09;;;20.27;69.25
80678;BME280;70042;52.494;5.502;2023-10-09T13:34:04;102123.41;;;20.27;69.44
80678;BME280;70042;52.494;5.502;2023-10-09T13:36:32;102112.78;;;20.27;69.35
80678;BME280;70042;52.494;5.502;2023-10-09T13:39:06;102115.44;;;20.27;69.38
80678;BME280;70042;52.494;5.502;2023-10-09T13:42:04;102111.91;;;20.28;69.11
80678;BME280;70042;52.494;5.502;2023-10-09T13:44:33;102103.94;;;20.30;69.31
80678;BME280;70042;52.494;5.502;2023-10-09T13:47:03;102100.34;;;20.31;69.24
80678;BME280;70042;52.494;5.502;2023-10-09T13:49:34;102103.88;;;20.33;69.35